sensor_id;sensor_type;location;lat;lon;timestamp;pressure;altitude;pressure_sealevel;temperature;humidity
10145;BME280;5113;41.822;23.564;2023-11-22T00:02:38;-11196.47;;;9.48;100.00
10145;BME280;5113;41.822;23.564;2023-11-22T00:05:46;-11208.84;;;9.92;100.00
10145;BME280;5113;41.822;23.564;2023-11-22T00:08:53;-11204.34;;;9.76;100.00
10145;BME280;5113;41.822;23.564;2023-11-22T00:11:59;-11205.47;;;9.80;100.00
10145;BME280;5113;41.822;23.564;2023-11-22T00:15:07;-11204.34;;;9.76;100.00
10145;BME280;5113;41.822;23.564;2023-11-22T00:18:15;-11201.53;;;9.66;100.00
10145;BME280;5113;41.822;23.564;2023-11-22T00:21:23;-11198.16;;;9.54;100.00
10145;BME280;5113;41.822;23.564;2023-11-22T00:24:29;-11202.38;;;9.69;100.00
10145;BME280;5113;41.822;23.564;2023-11-22T00:27:36;-11207.03;;;9.86;100.00
10145;BME280;5113;41.822;23.564;2023-11-22T00:30:43;-11214.47;;;10.13;99.27
10145;BME280;5113;41.822;23.564;2023-11-22T00:33:50;-11204.63;;;9.77;100.00
10145;BME280;5113;41.822;23.564;2023-11-22T00:36:58;-11207.59;;;9.88;100.00
10145;BME280;5113;41.822;23.564;2023-11-22T00:40:05;-11207.88;;;9.89;100.00
10145;BME280;5113;41.822;23.564;2023-11-22T00:43:16;-11200.13;;;9.61;100.00
10145;BME280;5113;41.822;23.564;2023-11-22T00:46:24;-11204.91;;;9.78;100.00
10145;BME280;5113;41.822;23.564;2023-11-22T00:49:30;-11214.63;;;10.13;98.50
10145;BME280;5113;41.822;23.564;2023-11-22T00:52:38;-11212.22;;;10.05;99.32
10145;BME280;5113;41.822;23.564;2023-11-22T00:55:50;-11207.72;;;9.88;100.00
10145;BME280;5113;41.822;23.564;2023-11-22T00:58:56;-11207.72;;;9.88;100.00
10145;BME280;5113;41.822;23.564;2023-11-22T01:02:05;-11193.38;;;9.37;100.00
10145;BME280;5113;41.822;23.564;2023-11-22T01:05:13;-11202.09;;;9.68;100.00
10145;BME280;5113;41.822;23.564;2023-11-22T01:08:22;-11193.25;;;9.36;100.00
10145;BME280;5113;41.822;23.564;2023-11-22T01:11:29;-11206.03;;;9.82;100.00
10145;BME280;5113;41.822;23.564;2023-11-22T01:14:35;-11195.63;;;9.45;100.00
10145;BME280;5113;41.822;23.564;2023-11-22T01:17:42;-11204.22;;;9.76;100.00
10145;BME280;5113;41.822;23.564;2023-11-22T01:20:48;-11198.87;;;9.56;100.00
10145;BME280;5113;41.822;23.564;2023-11-22T01:23:57;-11212.94;;;10.07;100.00
10145;BME280;5113;41.822;23.564;2023-11-22T01:27:04;-11205.63;;;9.81;100.00
10145;BME280;5113;41.822;23.564;2023-11-22T01:30:11;-11211.81;;;10.03;100.00
10145;BME280;5113;41.822;23.564;2023-11-22T01:33:18;-11208.84;;;9.92;100.00
10145;BME280;5113;41.822;23.564;2023-11-22T01:36:25;-11201.69;;;9.67;100.00
10145;BME280;5113;41.822;23.564;2023-11-22T01:39:33;-11205.47;;;9.80;100.00
10145;BME280;5113;41.822;23.564;2023-11-22T01:42:40;-11202.25;;;9.69;100.00
10145;BME280;5113;41.822;23.564;2023-11-22T01:45:47;-11204.06;;;9.75;100.00
10145;BME280;5113;41.822;23.564;2023-11-22T01:48:56;-11217.28;;;10.23;100.00
10145;BME280;5113;41.822;23.564;2023-11-22T01:52:04;-11210.81;;;10.00;100.00
10145;BME280;5113;41.822;23.564;2023-11-22T01:55:12;-11217.72;;;10.24;100.00
10145;BME280;5113;41.822;23.564;2023-11-22T01:58:20;-11211.38;;;10.02;100.00
10145;BME280;5113;41.822;23.564;2023-11-22T02:01:28;-11217.56;;;10.24;100.00
10145;BME280;5113;41.822;23.564;2023-11-22T02:04:35;-11209.69;;;9.96;100.00
10145;BME280;5113;41.822;23.564;2023-11-22T02:07:42;-11215.31;;;10.16;100.00
10145;BME280;5113;41.822;23.564;2023-11-22T02:10:58;-11212.38;;;10.05;100.00
10145;BME280;5113;41.822;23.564;2023-11-22T02:14:06;-11201.97;;;9.68;100.00
10145;BME280;5113;41.822;23.564;2023-11-22T02:17:13;-11218.13;;;10.26;100.00
10145;BME280;5113;41.822;23.564;2023-11-22T02:20:21;-11203.94;;;9.75;100.00
10145;BME280;5113;41.822;23.564;2023-11-22T02:23:29;-11216.03;;;10.18;100.00
10145;BME280;5113;41.822;23.564;2023-11-22T02:26:37;-11201.53;;;9.66;100.00
10145;BME280;5113;41.822;23.564;2023-11-22T02:29:44;-11201.81;;;9.67;100.00
10145;BME280;5113;41.822;23.564;2023-11-22T02:32:50;-11214.19;;;10.12;100.00
10145;BME280;5113;41.822;23.564;2023-11-22T02:35:57;-11209.97;;;9.97;100.00
10145;BME280;5113;41.822;23.564;2023-11-22T02:39:05;-11214.75;;;10.14;100.00
10145;BME280;5113;41.822;23.564;2023-11-22T02:42:11;-11202.66;;;9.70;100.00
10145;BME280;5113;41.822;23.564;2023-11-22T02:45:19;-11198.03;;;9.53;100.00
10145;BME280;5113;41.822;23.564;2023-11-22T02:48:28;-11197.03;;;9.50;100.00
10145;BME280;5113;41.822;23.564;2023-11-22T02:51:34;-11209.41;;;9.94;100.00
10145;BME280;5113;41.822;23.564;2023-11-22T02:54:43;-11207.44;;;9.87;100.00
10145;BME280;5113;41.822;23.564;2023-11-22T02:57:50;-11201.53;;;9.66;100.00
10145;BME280;5113;41.822;23.564;2023-11-22T03:00:57;-11200.97;;;9.64;100.00
10145;BME280;5113;41.822;23.564;2023-11-22T03:04:03;-11199.16;;;9.57;100.00
10145;BME280;5113;41.822;23.564;2023-11-22T03:07:10;-11202.66;;;9.70;100.00
10145;BME280;5113;41.822;23.564;2023-11-22T03:10:18;-11199.00;;;9.57;100.00
10145;BME280;5113;41.822;23.564;2023-11-22T03:13:25;-11204.63;;;9.77;100.00
10145;BME280;5113;41.822;23.564;2023-11-22T03:16:31;-11205.47;;;9.80;100.00
10145;BME280;5113;41.822;23.564;2023-11-22T03:19:38;-11210.69;;;9.99;100.00
10145;BME280;5113;41.822;23.564;2023-11-22T03:22:44;-11206.31;;;9.83;100.00
10145;BME280;5113;41.822;23.564;2023-11-22T03:25:57;-11204.34;;;9.76;100.00
10145;BME280;5113;41.822;23.564;2023-11-22T03:29:04;-11208.00;;;9.89;100.00
10145;BME280;5113;41.822;23.564;2023-11-22T03:32:11;-11192.97;;;9.35;100.00
10145;BME280;5113;41.822;23.564;2023-11-22T03:35:17;-11199.56;;;9.59;100.00
10145;BME280;5113;41.822;23.564;2023-11-22T03:38:25;-11203.50;;;9.73;100.00
10145;BME280;5113;41.822;23.564;2023-11-22T03:41:32;-11203.94;;;9.75;100.00
10145;BME280;5113;41.822;23.564;2023-11-22T03:44:39;-11209.69;;;9.96;100.00
10145;BME280;5113;41.822;23.564;2023-11-22T03:47:45;-11211.94;;;10.04;100.00
10145;BME280;5113;41.822;23.564;2023-11-22T03:50:52;-11215.59;;;10.17;100.00
10145;BME280;5113;41.822;23.564;2023-11-22T03:53:59;-11209.97;;;9.97;100.00
10145;BME280;5113;41.822;23.564;2023-11-22T03:57:07;-11218.13;;;10.26;100.00
10145;BME280;5113;41.822;23.564;2023-11-22T04:00:14;-11208.16;;;9.90;100.00
10145;BME280;5113;41.822;23.564;2023-11-22T04:03:22;-11200.56;;;9.63;100.00
10145;BME280;5113;41.822;23.564;2023-11-22T04:06:29;-11205.47;;;9.80;100.00
10145;BME280;5113;41.822;23.564;2023-11-22T04:09:38;-11194.22;;;9.40;100.00
10145;BME280;5113;41.822;23.564;2023-11-22T04:12:46;-11196.06;;;9.46;100.00
10145;BME280;5113;41.822;23.564;2023-11-22T04:15:53;-11205.47;;;9.80;100.00
10145;BME280;5113;41.822;23.564;2023-11-22T04:19:00;-11211.38;;;10.02;100.00
10145;BME280;5113;41.822;23.564;2023-11-22T04:22:07;-11200.97;;;9.64;100.00
10145;BME280;5113;41.822;23.564;2023-11-22T04:25:14;-11199.00;;;9.57;100.00
10145;BME280;5113;41.822;23.564;2023-11-22T04:28:22;-11203.94;;;9.75;100.00
10145;BME280;5113;41.822;23.564;2023-11-22T04:31:29;-11209.28;;;9.94;100.00
10145;BME280;5113;41.822;23.564;2023-11-22T04:34:35;-11211.38;;;10.02;100.00
10145;BME280;5113;41.822;23.564;2023-11-22T04:37:42;-11208.28;;;9.90;100.00
10145;BME280;5113;41.822;23.564;2023-11-22T04:40:49;-11201.69;;;9.67;100.00
10145;BME280;5113;41.822;23.564;2023-11-22T04:43:57;-11193.09;;;9.36;100.00
10145;BME280;5113;41.822;23.564;2023-11-22T04:47:04;-11194.78;;;9.42;100.00
10145;BME280;5113;41.822;23.564;2023-11-22T04:50:11;-11202.66;;;9.70;100.00
10145;BME280;5113;41.822;23.564;2023-11-22T04:53:19;-11201.81;;;9.67;100.00
10145;BME280;5113;41.822;23.564;2023-11-22T04:56:26;-11199.00;;;9.57;100.00
10145;BME280;5113;41.822;23.564;2023-11-22T04:59:34;-11202.94;;;9.71;100.00
10145;BME280;5113;41.822;23.564;2023-11-22T05:02:41;-11203.50;;;9.73;100.00
10145;BME280;5113;41.822;23.564;2023-11-22T05:05:48;-11209.84;;;9.96;100.00
10145;BME280;5113;41.822;23.564;2023-11-22T05:08:54;-11189.72;;;9.23;100.00
10145;BME280;5113;41.822;23.564;2023-11-22T05:12:01;-11201.25;;;9.65;100.00
10145;BME280;5113;41.822;23.564;2023-11-22T05:15:10;-11201.53;;;9.66;100.00
10145;BME280;5113;41.822;23.564;2023-11-22T05:18:16;-11194.22;;;9.40;100.00
10145;BME280;5113;41.822;23.564;2023-11-22T05:21:23;-11196.19;;;9.47;100.00
10145;BME280;5113;41.822;23.564;2023-11-22T05:24:30;-11201.53;;;9.66;100.00
10145;BME280;5113;41.822;23.564;2023-11-22T05:27:36;-11196.06;;;9.46;100.00
10145;BME280;5113;41.822;23.564;2023-11-22T05:30:44;-11194.50;;;9.41;100.00
10145;BME280;5113;41.822;23.564;2023-11-22T05:33:51;-11204.06;;;9.75;100.00
10145;BME280;5113;41.822;23.564;2023-11-22T05:36:57;-11197.31;;;9.51;100.00
10145;BME280;5113;41.822;23.564;2023-11-22T05:40:05;-11198.72;;;9.56;100.00
10145;BME280;5113;41.822;23.564;2023-11-22T05:43:14;-11209.41;;;9.94;100.00
10145;BME280;5113;41.822;23.564;2023-11-22T05:46:24;-11203.50;;;9.73;100.00
10145;BME280;5113;41.822;23.564;2023-11-22T05:49:30;-11204.78;;;9.78;100.00
10145;BME280;5113;41.822;23.564;2023-11-22T05:52:37;-11215.31;;;10.16;100.00
10145;BME280;5113;41.822;23.564;2023-11-22T05:55:44;-11200.41;;;9.62;100.00
10145;BME280;5113;41.822;23.564;2023-11-22T05:58:50;-11196.34;;;9.47;100.00
10145;BME280;5113;41.822;23.564;2023-11-22T06:01:58;-11215.47;;;10.16;100.00
10145;BME280;5113;41.822;23.564;2023-11-22T06:05:05;-11218.69;;;10.28;100.00
10145;BME280;5113;41.822;23.564;2023-11-22T06:08:12;-11207.72;;;9.88;100.00
10145;BME280;5113;41.822;23.564;2023-11-22T06:11:19;-11208.28;;;9.90;100.00
10145;BME280;5113;41.822;23.564;2023-11-22T06:14:26;-11209.56;;;9.95;100.00
10145;BME280;5113;41.822;23.564;2023-11-22T06:17:34;-11212.50;;;10.06;100.00
10145;BME280;5113;41.822;23.564;2023-11-22T06:20:41;-11215.31;;;10.16;100.00
10145;BME280;5113;41.822;23.564;2023-11-22T06:23:48;-11220.81;;;10.36;100.00
10145;BME280;5113;41.822;23.564;2023-11-22T06:26:54;-11221.94;;;10.40;100.00
10145;BME280;5113;41.822;23.564;2023-11-22T06:30:01;-11211.25;;;10.01;100.00
10145;BME280;5113;41.822;23.564;2023-11-22T06:33:09;-11217.28;;;10.23;100.00
10145;BME280;5113;41.822;23.564;2023-11-22T06:36:16;-11213.78;;;10.10;100.00
10145;BME280;5113;41.822;23.564;2023-11-22T06:39:23;-11228.69;;;10.64;100.00
10145;BME280;5113;41.822;23.564;2023-11-22T06:42:30;-11231.22;;;10.73;100.00
10145;BME280;5113;41.822;23.564;2023-11-22T06:45:36;-11225.44;;;10.52;100.00
10145;BME280;5113;41.822;23.564;2023-11-22T06:48:44;-11226.72;;;10.57;100.00
10145;BME280;5113;41.822;23.564;2023-11-22T06:51:54;-11225.03;;;10.51;100.00
10145;BME280;5113;41.822;23.564;2023-11-22T06:55:01;-11212.94;;;10.07;100.00
10145;BME280;5113;41.822;23.564;2023-11-22T06:58:08;-11231.91;;;10.76;100.00
10145;BME280;5113;41.822;23.564;2023-11-22T07:01:15;-11231.63;;;10.75;100.00
10145;BME280;5113;41.822;23.564;2023-11-22T07:04:23;-11232.63;;;10.78;100.00
10145;BME280;5113;41.822;23.564;2023-11-22T07:07:30;-11233.31;;;10.81;100.00
10145;BME280;5113;41.822;23.564;2023-11-22T07:10:37;-11226.28;;;10.55;100.00
10145;BME280;5113;41.822;23.564;2023-11-22T07:13:43;-11237.97;;;10.98;100.00
10145;BME280;5113;41.822;23.564;2023-11-22T07:16:50;-11247.13;;;11.31;100.00
10145;BME280;5113;41.822;23.564;2023-11-22T07:20:00;-11234.19;;;10.84;100.00
10145;BME280;5113;41.822;23.564;2023-11-22T07:23:07;-11244.03;;;11.19;100.00
10145;BME280;5113;41.822;23.564;2023-11-22T07:26:18;-11235.59;;;10.89;100.00
10145;BME280;5113;41.822;23.564;2023-11-22T07:29:25;-11238.66;;;11.00;100.00
10145;BME280;5113;41.822;23.564;2023-11-22T07:32:33;-11240.06;;;11.05;100.00
10145;BME280;5113;41.822;23.564;2023-11-22T07:35:44;-11239.78;;;11.04;100.00
10145;BME280;5113;41.822;23.564;2023-11-22T07:38:51;-11229.53;;;10.67;100.00
10145;BME280;5113;41.822;23.564;2023-11-22T07:41:58;-11234.03;;;10.83;100.00
10145;BME280;5113;41.822;23.564;2023-11-22T07:45:06;-11243.75;;;11.18;100.00
10145;BME280;5113;41.822;23.564;2023-11-22T07:48:15;-11247.53;;;11.32;100.00
10145;BME280;5113;41.822;23.564;2023-11-22T07:51:23;-11236.56;;;10.93;100.00
10145;BME280;5113;41.822;23.564;2023-11-22T07:54:30;-11241.34;;;11.10;100.00
10145;BME280;5113;41.822;23.564;2023-11-22T07:57:37;-11213.78;;;10.10;100.00
10145;BME280;5113;41.822;23.564;2023-11-22T08:00:43;-11231.50;;;10.74;100.00
10145;BME280;5113;41.822;23.564;2023-11-22T08:03:50;-11229.94;;;10.69;100.00
10145;BME280;5113;41.822;23.564;2023-11-22T08:06:59;-11246.00;;;11.27;100.00
10145;BME280;5113;41.822;23.564;2023-11-22T08:10:08;-11242.03;;;11.12;100.00
10145;BME280;5113;41.822;23.564;2023-11-22T08:13:22;-11243.47;;;11.17;100.00
10145;BME280;5113;41.822;23.564;2023-11-22T08:16:28;-11236.00;;;10.90;100.00
10145;BME280;5113;41.822;23.564;2023-11-22T08:19:35;-11236.44;;;10.92;100.00
10145;BME280;5113;41.822;23.564;2023-11-22T08:22:46;-11255.28;;;11.60;100.00
10145;BME280;5113;41.822;23.564;2023-11-22T08:25:54;-11255.00;;;11.59;100.00
10145;BME280;5113;41.822;23.564;2023-11-22T08:29:02;-11260.63;;;11.79;100.00
10145;BME280;5113;41.822;23.564;2023-11-22T08:32:09;-11249.94;;;11.41;100.00
10145;BME280;5113;41.822;23.564;2023-11-22T08:35:15;-11240.78;;;11.08;100.00
10145;BME280;5113;41.822;23.564;2023-11-22T08:38:24;-11244.88;;;11.22;100.00
10145;BME280;5113;41.822;23.564;2023-11-22T08:41:32;-11248.81;;;11.37;100.00
10145;BME280;5113;41.822;23.564;2023-11-22T08:44:38;-11247.69;;;11.33;100.00
10145;BME280;5113;41.822;23.564;2023-11-22T08:47:45;-11253.03;;;11.52;100.00
10145;BME280;5113;41.822;23.564;2023-11-22T08:50:54;-11261.19;;;11.81;100.00
10145;BME280;5113;41.822;23.564;2023-11-22T08:54:02;-11248.81;;;11.37;100.00
10145;BME280;5113;41.822;23.564;2023-11-22T08:57:09;-11253.59;;;11.54;100.00
10145;BME280;5113;41.822;23.564;2023-11-22T09:00:17;-11247.97;;;11.34;100.00
10145;BME280;5113;41.822;23.564;2023-11-22T09:03:27;-11257.94;;;11.70;100.00
10145;BME280;5113;41.822;23.564;2023-11-22T09:06:34;-11261.19;;;11.81;100.00
10145;BME280;5113;41.822;23.564;2023-11-22T09:09:42;-11267.09;;;12.03;100.00
10145;BME280;5113;41.822;23.564;2023-11-22T09:12:50;-11251.63;;;11.47;100.00
10145;BME280;5113;41.822;23.564;2023-11-22T09:15:57;-11257.38;;;11.68;100.00
10145;BME280;5113;41.822;23.564;2023-11-22T09:19:03;-11263.59;;;11.90;100.00
10145;BME280;5113;41.822;23.564;2023-11-22T09:22:11;-11253.59;;;11.54;100.00
10145;BME280;5113;41.822;23.564;2023-11-22T09:25:20;-11256.13;;;11.63;100.00
10145;BME280;5113;41.822;23.564;2023-11-22T09:28:28;-11257.94;;;11.70;100.00
10145;BME280;5113;41.822;23.564;2023-11-22T09:31:35;-11242.59;;;11.14;100.00
10145;BME280;5113;41.822;23.564;2023-11-22T09:34:41;-11260.06;;;11.77;100.00
10145;BME280;5113;41.822;23.564;2023-11-22T09:37:49;-11250.78;;;11.44;100.00
10145;BME280;5113;41.822;23.564;2023-11-22T09:40:58;-11256.81;;;11.66;100.00
10145;BME280;5113;41.822;23.564;2023-11-22T09:44:05;-11251.75;;;11.47;100.00
10145;BME280;5113;41.822;23.564;2023-11-22T09:47:12;-11264.84;;;11.95;100.00
10145;BME280;5113;41.822;23.564;2023-11-22T09:50:20;-11257.53;;;11.68;100.00
10145;BME280;5113;41.822;23.564;2023-11-22T09:53:32;-11276.53;;;12.37;100.00
10145;BME280;5113;41.822;23.564;2023-11-22T09:56:41;-11272.44;;;12.22;100.00
10145;BME280;5113;41.822;23.564;2023-11-22T09:59:56;-11256.13;;;11.63;100.00
10145;BME280;5113;41.822;23.564;2023-11-22T10:03:04;-11269.06;;;12.10;100.00
10145;BME280;5113;41.822;23.564;2023-11-22T10:06:10;-11266.97;;;12.02;100.00
10145;BME280;5113;41.822;23.564;2023-11-22T10:09:17;-11274.69;;;12.30;100.00
10145;BME280;5113;41.822;23.564;2023-11-22T10:12:29;-11272.31;;;12.21;100.00
10145;BME280;5113;41.822;23.564;2023-11-22T10:15:35;-11261.19;;;11.81;100.00
10145;BME280;5113;41.822;23.564;2023-11-22T10:18:42;-11261.88;;;11.84;100.00
10145;BME280;5113;41.822;23.564;2023-11-22T10:22:02;-11267.94;;;12.06;100.00
10145;BME280;5113;41.822;23.564;2023-11-22T10:25:11;-11269.63;;;12.12;100.00
10145;BME280;5113;41.822;23.564;2023-11-22T10:28:21;-11277.22;;;12.39;100.00
10145;BME280;5113;41.822;23.564;2023-11-22T10:31:28;-11273.84;;;12.27;100.00
10145;BME280;5113;41.822;23.564;2023-11-22T10:34:35;-11277.22;;;12.39;100.00
10145;BME280;5113;41.822;23.564;2023-11-22T10:37:42;-11263.88;;;11.91;100.00
10145;BME280;5113;41.822;23.564;2023-11-22T10:40:50;-11275.25;;;12.32;100.00
10145;BME280;5113;41.822;23.564;2023-11-22T10:44:05;-11281.88;;;12.56;100.00
10145;BME280;5113;41.822;23.564;2023-11-22T10:47:14;-11289.34;;;12.83;100.00
10145;BME280;5113;41.822;23.564;2023-11-22T10:50:22;-11293.41;;;12.98;100.00
10145;BME280;5113;41.822;23.564;2023-11-22T10:53:32;-11289.19;;;12.82;100.00
10145;BME280;5113;41.822;23.564;2023-11-22T10:56:40;-11290.88;;;12.88;100.00
10145;BME280;5113;41.822;23.564;2023-11-22T10:59:54;-11275.41;;;12.33;100.00
10145;BME280;5113;41.822;23.564;2023-11-22T11:03:07;-11291.59;;;12.91;100.00
10145;BME280;5113;41.822;23.564;2023-11-22T11:06:16;-11294.13;;;13.00;100.00
10145;BME280;5113;41.822;23.564;2023-11-22T11:09:25;-11278.63;;;12.44;100.00
10145;BME280;5113;41.822;23.564;2023-11-22T11:12:38;-11285.81;;;12.70;100.00
10145;BME280;5113;41.822;23.564;2023-11-22T11:15:46;-11296.78;;;13.10;100.00
10145;BME280;5113;41.822;23.564;2023-11-22T11:18:54;-11303.13;;;13.33;100.00
10145;BME280;5113;41.822;23.564;2023-11-22T11:22:00;-11296.22;;;13.08;100.00
10145;BME280;5113;41.822;23.564;2023-11-22T11:25:07;-11300.31;;;13.23;100.00
10145;BME280;5113;41.822;23.564;2023-11-22T11:28:15;-11284.84;;;12.67;100.00
10145;BME280;5113;41.822;23.564;2023-11-22T11:31:31;-11299.47;;;13.19;100.00
10145;BME280;5113;41.822;23.564;2023-11-22T11:34:47;-11290.19;;;12.86;100.00
10145;BME280;5113;41.822;23.564;2023-11-22T11:37:59;-11296.38;;;13.08;100.00
10145;BME280;5113;41.822;23.564;2023-11-22T11:41:09;-11303.97;;;13.36;100.00
10145;BME280;5113;41.822;23.564;2023-11-22T11:44:15;-11290.47;;;12.87;100.00
10145;BME280;5113;41.822;23.564;2023-11-22T11:47:26;-11301.03;;;13.25;100.00
10145;BME280;5113;41.822;23.564;2023-11-22T11:50:33;-11294.69;;;13.02;100.00
10145;BME280;5113;41.822;23.564;2023-11-22T11:53:39;-11294.81;;;13.03;100.00
10145;BME280;5113;41.822;23.564;2023-11-22T11:56:46;-11305.25;;;13.40;100.00
10145;BME280;5113;41.822;23.564;2023-11-22T11:59:56;-11315.53;;;13.77;100.00
10145;BME280;5113;41.822;23.564;2023-11-22T12:03:06;-11320.72;;;13.96;100.00
10145;BME280;5113;41.822;23.564;2023-11-22T12:06:15;-11321.84;;;14.00;100.00
10145;BME280;5113;41.822;23.564;2023-11-22T12:09:24;-11308.19;;;13.51;100.00
10145;BME280;5113;41.822;23.564;2023-11-22T12:12:31;-11320.72;;;13.96;100.00
10145;BME280;5113;41.822;23.564;2023-11-22T12:15:37;-11321.16;;;13.98;100.00
10145;BME280;5113;41.822;23.564;2023-11-22T12:18:46;-11307.50;;;13.48;100.00
10145;BME280;5113;41.822;23.564;2023-11-22T12:21:53;-11309.47;;;13.55;100.00
10145;BME280;5113;41.822;23.564;2023-11-22T12:25:00;-11327.34;;;14.20;100.00
10145;BME280;5113;41.822;23.564;2023-11-22T12:28:07;-11315.81;;;13.78;100.00
10145;BME280;5113;41.822;23.564;2023-11-22T12:31:14;-11322.84;;;14.04;99.15
10145;BME280;5113;41.822;23.564;2023-11-22T12:34:23;-11326.66;;;14.17;96.78
10145;BME280;5113;41.822;23.564;2023-11-22T12:37:30;-11333.84;;;14.43;96.62
10145;BME280;5113;41.822;23.564;2023-11-22T12:40:36;-11314.69;;;13.74;96.87
10145;BME280;5113;41.822;23.564;2023-11-22T12:43:43;-11320.03;;;13.94;99.31
10145;BME280;5113;41.822;23.564;2023-11-22T12:46:54;-11331.28;;;14.34;96.87
10145;BME280;5113;41.822;23.564;2023-11-22T12:50:07;-11308.63;;;13.52;100.00
10145;BME280;5113;41.822;23.564;2023-11-22T12:53:15;-11307.34;;;13.48;100.00
10145;BME280;5113;41.822;23.564;2023-11-22T12:56:22;-11321.44;;;13.99;100.00
10145;BME280;5113;41.822;23.564;2023-11-22T12:59:28;-11309.75;;;13.57;100.00
10145;BME280;5113;41.822;23.564;2023-11-22T13:02:36;-11303.13;;;13.33;100.00
10145;BME280;5113;41.822;23.564;2023-11-22T13:06:02;-11321.56;;;13.99;98.93
10145;BME280;5113;41.822;23.564;2023-11-22T13:09:09;-11333.41;;;14.42;98.90
10145;BME280;5113;41.822;23.564;2023-11-22T13:12:20;-11316.66;;;13.81;99.64
10145;BME280;5113;41.822;23.564;2023-11-22T13:15:27;-11309.59;;;13.56;100.00
10145;BME280;5113;41.822;23.564;2023-11-22T13:18:35;-11326.22;;;14.16;99.69
10145;BME280;5113;41.822;23.564;2023-11-22T13:21:43;-11308.75;;;13.53;100.00
10145;BME280;5113;41.822;23.564;2023-11-22T13:24:50;-11307.50;;;13.48;100.00
10145;BME280;5113;41.822;23.564;2023-11-22T13:27:57;-11338.91;;;14.62;96.55
10145;BME280;5113;41.822;23.564;2023-11-22T13:31:04;-11325.38;;;14.13;94.76
10145;BME280;5113;41.822;23.564;2023-11-22T13:34:11;-11313.69;;;13.71;100.00
10145;BME280;5113;41.822;23.564;2023-11-22T13:37:22;-11314.41;;;13.73;100.00
10145;BME280;5113;41.822;23.564;2023-11-22T13:40:29;-11331.28;;;14.34;97.29
10145;BME280;5113;41.822;23.564;2023-11-22T13:43:36;-11324.94;;;14.11;98.65
10145;BME280;5113;41.822;23.564;2023-11-22T13:46:42;-11320.59;;;13.96;100.00
10145;BME280;5113;41.822;23.564;2023-11-22T13:49:49;-11333.28;;;14.41;97.59
10145;BME280;5113;41.822;23.564;2023-11-22T13:52:57;-11327.34;;;14.20;99.16
10145;BME280;5113;41.822;23.564;2023-11-22T13:56:05;-11331.28;;;14.34;98.16
10145;BME280;5113;41.822;23.564;2023-11-22T13:59:13;-11325.66;;;14.14;99.51
10145;BME280;5113;41.822;23.564;2023-11-22T14:02:20;-11313.00;;;13.68;100.00
10145;BME280;5113;41.822;23.564;2023-11-22T14:05:27;-11322.56;;;14.03;99.91
10145;BME280;5113;41.822;23.564;2023-11-22T14:08:35;-11325.66;;;14.14;100.00
10145;BME280;5113;41.822;23.564;2023-11-22T14:11:42;-11325.38;;;14.13;100.00
10145;BME280;5113;41.822;23.564;2023-11-22T14:14:48;-11324.66;;;14.10;100.00
10145;BME280;5113;41.822;23.564;2023-11-22T14:17:56;-11299.91;;;13.21;100.00
10145;BME280;5113;41.822;23.564;2023-11-22T14:21:04;-11318.34;;;13.87;100.00
10145;BME280;5113;41.822;23.564;2023-11-22T14:24:12;-11326.78;;;14.18;100.00
10145;BME280;5113;41.822;23.564;2023-11-22T14:27:19;-11328.34;;;14.24;100.00
10145;BME280;5113;41.822;23.564;2023-11-22T14:30:26;-11322.41;;;14.02;100.00
10145;BME280;5113;41.822;23.564;2023-11-22T14:33:34;-11320.88;;;13.97;100.00
10145;BME280;5113;41.822;23.564;2023-11-22T14:36:40;-11308.34;;;13.51;100.00
10145;BME280;5113;41.822;23.564;2023-11-22T14:39:48;-11309.59;;;13.56;100.00
10145;BME280;5113;41.822;23.564;2023-11-22T14:42:55;-11317.91;;;13.86;100.00
10145;BME280;5113;41.822;23.564;2023-11-22T14:46:03;-11308.19;;;13.51;100.00
10145;BME280;5113;41.822;23.564;2023-11-22T14:49:10;-11303.84;;;13.35;100.00
10145;BME280;5113;41.822;23.564;2023-11-22T14:52:17;-11304.41;;;13.37;100.00
10145;BME280;5113;41.822;23.564;2023-11-22T14:55:25;-11308.06;;;13.50;100.00
10145;BME280;5113;41.822;23.564;2023-11-22T14:58:32;-11313.56;;;13.70;100.00
10145;BME280;5113;41.822;23.564;2023-11-22T15:01:40;-11317.50;;;13.84;100.00
10145;BME280;5113;41.822;23.564;2023-11-22T15:04:47;-11314.13;;;13.72;100.00
10145;BME280;5113;41.822;23.564;2023-11-22T15:07:53;-11298.06;;;13.14;100.00
10145;BME280;5113;41.822;23.564;2023-11-22T15:11:03;-11309.03;;;13.54;100.00
10145;BME280;5113;41.822;23.564;2023-11-22T15:14:10;-11299.06;;;13.18;100.00
10145;BME280;5113;41.822;23.564;2023-11-22T15:17:17;-11296.09;;;13.07;100.00
10145;BME280;5113;41.822;23.564;2023-11-22T15:20:23;-11285.97;;;12.71;100.00
10145;BME280;5113;41.822;23.564;2023-11-22T15:23:30;-11297.50;;;13.12;100.00
10145;BME280;5113;41.822;23.564;2023-11-22T15:26:38;-11296.66;;;13.09;100.00
10145;BME280;5113;41.822;23.564;2023-11-22T15:29:44;-11291.16;;;12.89;100.00
10145;BME280;5113;41.822;23.564;2023-11-22T15:32:51;-11271.31;;;12.18;100.00
10145;BME280;5113;41.822;23.564;2023-11-22T15:35:59;-11272.59;;;12.22;100.00
10145;BME280;5113;41.822;23.564;2023-11-22T15:39:07;-11271.88;;;12.20;100.00
10145;BME280;5113;41.822;23.564;2023-11-22T15:42:18;-11276.38;;;12.36;100.00
10145;BME280;5113;41.822;23.564;2023-11-22T15:45:25;-11268.22;;;12.07;100.00
10145;BME280;5113;41.822;23.564;2023-11-22T15:48:31;-11273.28;;;12.25;100.00
10145;BME280;5113;41.822;23.564;2023-11-22T15:51:38;-11257.53;;;11.68;100.00
10145;BME280;5113;41.822;23.564;2023-11-22T15:54:45;-11271.59;;;12.19;100.00
10145;BME280;5113;41.822;23.564;2023-11-22T15:57:53;-11262.59;;;11.86;100.00
10145;BME280;5113;41.822;23.564;2023-11-22T16:01:01;-11269.34;;;12.11;100.00
10145;BME280;5113;41.822;23.564;2023-11-22T16:04:08;-11252.31;;;11.49;100.00
10145;BME280;5113;41.822;23.564;2023-11-22T16:07:16;-11258.66;;;11.72;100.00
10145;BME280;5113;41.822;23.564;2023-11-22T16:10:23;-11257.94;;;11.70;100.00
10145;BME280;5113;41.822;23.564;2023-11-22T16:13:31;-11257.81;;;11.69;100.00